sensor_id;sensor_type;location;lat;lon;timestamp;pressure;altitude;pressure_sealevel;temperature;humidity
28921;BME280;16035;53.594;9.952;2022-08-01T00:00:42;101163.09;;;19.63;75.45
28921;BME280;16035;53.594;9.952;2022-08-01T00:02:42;101160.31;;;19.63;75.01
28921;BME280;16035;53.594;9.952;2022-08-01T00:04:42;101162.84;;;19.60;75.32
28921;BME280;16035;53.594;9.952;2022-08-01T00:06:43;101166.97;;;19.62;75.26
28921;BME280;16035;53.594;9.952;2022-08-01T00:08:43;101166.47;;;19.60;75.09
28921;BME280;16035;53.594;9.952;2022-08-01T00:10:43;101168.38;;;19.60;75.38
28921;BME280;16035;53.594;9.952;2022-08-01T00:12:44;101172.25;;;19.59;75.15
28921;BME280;16035;53.594;9.952;2022-08-01T00:14:45;101172.25;;;19.59;75.45
28921;BME280;16035;53.594;9.952;2022-08-01T00:16:45;101170.63;;;19.58;75.46
28921;BME280;16035;53.594;9.952;2022-08-01T00:18:46;101168.38;;;19.60;75.74
28921;BME280;16035;53.594;9.952;2022-08-01T00:20:46;101170.88;;;19.61;75.33
28921;BME280;16035;53.594;9.952;2022-08-01T00:22:46;101169.94;;;19.66;75.28
28921;BME280;16035;53.594;9.952;2022-08-01T00:24:47;101161.66;;;19.66;75.41
28921;BME280;16035;53.594;9.952;2022-08-01T00:26:47;101170.13;;;19.69;75.34
28921;BME280;16035;53.594;9.952;2022-08-01T00:28:47;101165.41;;;19.70;75.47
28921;BME280;16035;53.594;9.952;2022-08-01T00:30:48;101175.63;;;19.69;75.62
28921;BME280;16035;53.594;9.952;2022-08-01T00:32:48;101157.28;;;19.65;75.50
28921;BME280;16035;53.594;9.952;2022-08-01T00:34:48;101173.81;;;19.65;75.43
28921;BME280;16035;53.594;9.952;2022-08-01T00:36:49;101170.53;;;19.63;75.29
28921;BME280;16035;53.594;9.952;2022-08-01T00:38:49;101169.25;;;19.60;75.53
28921;BME280;16035;53.594;9.952;2022-08-01T00:40:50;101166.97;;;19.62;75.73
28921;BME280;16035;53.594;9.952;2022-08-01T00:42:50;101169.41;;;19.64;75.91
28921;BME280;16035;53.594;9.952;2022-08-01T00:44:50;101176.75;;;19.68;75.71
28921;BME280;16035;53.594;9.952;2022-08-01T00:46:51;101155.00;;;19.67;75.52
28921;BME280;16035;53.594;9.952;2022-08-01T00:48:51;101168.59;;;19.63;75.42
28921;BME280;16035;53.594;9.952;2022-08-01T00:50:52;101156.28;;;19.61;75.51
28921;BME280;16035;53.594;9.952;2022-08-01T00:52:53;101165.34;;;19.61;75.76
28921;BME280;16035;53.594;9.952;2022-08-01T00:54:53;101165.03;;;19.63;75.45
28921;BME280;16035;53.594;9.952;2022-08-01T00:56:54;101168.59;;;19.63;75.30
28921;BME280;16035;53.594;9.952;2022-08-01T00:58:55;101171.44;;;19.58;75.19
28921;BME280;16035;53.594;9.952;2022-08-01T01:00:55;101168.81;;;19.53;75.61
28921;BME280;16035;53.594;9.952;2022-08-01T01:02:56;101162.16;;;19.54;75.64
28921;BME280;16035;53.594;9.952;2022-08-01T01:04:56;101171.06;;;19.51;75.71
28921;BME280;16035;53.594;9.952;2022-08-01T01:07:09;101162.28;;;19.49;75.81
28921;BME280;16035;53.594;9.952;2022-08-01T01:14:10;101172.69;;;19.52;75.81
28921;BME280;16035;53.594;9.952;2022-08-01T01:16:15;101163.63;;;19.52;75.86
28921;BME280;16035;53.594;9.952;2022-08-01T01:18:23;101163.09;;;19.50;76.04
28921;BME280;16035;53.594;9.952;2022-08-01T01:20:30;101170.75;;;19.53;76.08
28921;BME280;16035;53.594;9.952;2022-08-01T01:22:57;101172.06;;;19.55;76.44
28921;BME280;16035;53.594;9.952;2022-08-01T01:28:17;101168.91;;;19.62;76.46
28921;BME280;16035;53.594;9.952;2022-08-01T01:30:23;101172.25;;;19.59;75.81
28921;BME280;16035;53.594;9.952;2022-08-01T01:32:38;101168.19;;;19.56;75.71
28921;BME280;16035;53.594;9.952;2022-08-01T01:34:42;101167.69;;;19.54;75.94
28921;BME280;16035;53.594;9.952;2022-08-01T01:36:44;101175.66;;;19.56;75.71
28921;BME280;16035;53.594;9.952;2022-08-01T01:38:46;101173.19;;;19.54;75.84
28921;BME280;16035;53.594;9.952;2022-08-01T01:40:50;101179.63;;;19.50;75.91
28921;BME280;16035;53.594;9.952;2022-08-01T01:42:53;101173.44;;;19.44;76.13
28921;BME280;16035;53.594;9.952;2022-08-01T01:44:56;101175.38;;;19.43;76.20
28921;BME280;16035;53.594;9.952;2022-08-01T01:46:57;101180.28;;;19.47;76.47
28921;BME280;16035;53.594;9.952;2022-08-01T01:49:00;101177.00;;;19.44;76.24
28921;BME280;16035;53.594;9.952;2022-08-01T01:51:01;101173.56;;;19.39;75.91
28921;BME280;16035;53.594;9.952;2022-08-01T01:53:03;101183.25;;;19.36;76.13
28921;BME280;16035;53.594;9.952;2022-08-01T01:55:06;101177.53;;;19.33;76.14
28921;BME280;16035;53.594;9.952;2022-08-01T01:57:08;101184.97;;;19.32;76.63
28921;BME280;16035;53.594;9.952;2022-08-01T01:59:09;101180.47;;;19.36;76.45
28921;BME280;16035;53.594;9.952;2022-08-01T02:01:10;101182.94;;;19.38;76.57
28921;BME280;16035;53.594;9.952;2022-08-01T02:03:11;101185.38;;;19.39;76.88
28921;BME280;16035;53.594;9.952;2022-08-01T02:05:12;101186.88;;;19.45;75.99
28921;BME280;16035;53.594;9.952;2022-08-01T02:07:15;101186.31;;;19.35;76.25
28921;BME280;16035;53.594;9.952;2022-08-01T02:09:17;101189.19;;;19.30;76.39
28921;BME280;16035;53.594;9.952;2022-08-01T02:11:20;101199.69;;;19.28;76.47
28921;BME280;16035;53.594;9.952;2022-08-01T02:13:21;101190.94;;;19.26;76.42
28921;BME280;16035;53.594;9.952;2022-08-01T02:15:23;101191.53;;;19.23;76.74
28921;BME280;16035;53.594;9.952;2022-08-01T02:17:24;101187.16;;;19.22;76.73
28921;BME280;16035;53.594;9.952;2022-08-01T02:19:25;101195.75;;;19.20;76.60
28921;BME280;16035;53.594;9.952;2022-08-01T02:21:42;101196.13;;;19.13;76.81
28921;BME280;16035;53.594;9.952;2022-08-01T02:23:44;101194.81;;;19.11;77.13
28921;BME280;16035;53.594;9.952;2022-08-01T02:25:48;101198.69;;;19.10;77.10
28921;BME280;16035;53.594;9.952;2022-08-01T02:27:56;101190.13;;;19.11;77.08
28921;BME280;16035;53.594;9.952;2022-08-01T02:30:08;101193.59;;;19.17;77.56
28921;BME280;16035;53.594;9.952;2022-08-01T02:32:24;101191.66;;;19.17;77.07
28921;BME280;16035;53.594;9.952;2022-08-01T02:34:28;101192.47;;;19.18;77.29
28921;BME280;16035;53.594;9.952;2022-08-01T02:36:35;101187.88;;;19.13;77.05
28921;BME280;16035;53.594;9.952;2022-08-01T02:38:40;101190.31;;;19.15;77.42
28921;BME280;16035;53.594;9.952;2022-08-01T02:40:45;101183.38;;;19.17;77.33
28921;BME280;16035;53.594;9.952;2022-08-01T02:42:49;101191.31;;;19.19;77.49
28921;BME280;16035;53.594;9.952;2022-08-01T02:44:51;101193.97;;;19.24;77.24
28921;BME280;16035;53.594;9.952;2022-08-01T02:47:02;101195.00;;;19.28;77.64
28921;BME280;16035;53.594;9.952;2022-08-01T02:49:03;101192.06;;;19.25;76.94
28921;BME280;16035;53.594;9.952;2022-08-01T02:51:06;101196.72;;;19.24;76.92
28921;BME280;16035;53.594;9.952;2022-08-01T02:53:09;101189.91;;;19.22;77.38
28921;BME280;16035;53.594;9.952;2022-08-01T02:55:12;101196.56;;;19.21;77.08
28921;BME280;16035;53.594;9.952;2022-08-01T02:57:14;101195.22;;;19.18;76.89
28921;BME280;16035;53.594;9.952;2022-08-01T02:59:18;101198.56;;;19.15;77.32
28921;BME280;16035;53.594;9.952;2022-08-01T03:01:19;101200.72;;;19.18;77.25
28921;BME280;16035;53.594;9.952;2022-08-01T03:03:21;101204.00;;;19.20;77.03
28921;BME280;16035;53.594;9.952;2022-08-01T03:05:23;101201.53;;;19.18;77.27
28921;BME280;16035;53.594;9.952;2022-08-01T03:07:25;101205.63;;;19.21;77.09
28921;BME280;16035;53.594;9.952;2022-08-01T03:09:28;101206.75;;;19.20;77.36
28921;BME280;16035;53.594;9.952;2022-08-01T03:11:31;101201.25;;;19.20;77.32
28921;BME280;16035;53.594;9.952;2022-08-01T03:13:32;101207.03;;;19.18;76.80
28921;BME280;16035;53.594;9.952;2022-08-01T03:15:35;101209.59;;;19.15;76.92
28921;BME280;16035;53.594;9.952;2022-08-01T03:17:39;101213.28;;;19.10;76.87
28921;BME280;16035;53.594;9.952;2022-08-01T03:19:41;101206.25;;;19.04;77.14
28921;BME280;16035;53.594;9.952;2022-08-01T03:21:45;101210.72;;;19.00;77.30
28921;BME280;16035;53.594;9.952;2022-08-01T03:23:47;101209.41;;;18.98;77.45
28921;BME280;16035;53.594;9.952;2022-08-01T03:25:51;101211.53;;;19.01;77.57
28921;BME280;16035;53.594;9.952;2022-08-01T03:27:55;101212.34;;;19.01;77.48
28921;BME280;16035;53.594;9.952;2022-08-01T03:29:57;101213.16;;;19.02;77.04
28921;BME280;16035;53.594;9.952;2022-08-01T03:32:00;101210.72;;;19.00;77.40
28921;BME280;16035;53.594;9.952;2022-08-01T03:34:01;101219.00;;;19.00;77.34
28921;BME280;16035;53.594;9.952;2022-08-01T03:36:02;101221.75;;;19.00;77.52
28921;BME280;16035;53.594;9.952;2022-08-01T03:38:05;101215.63;;;19.03;77.63
28921;BME280;16035;53.594;9.952;2022-08-01T03:40:30;101219.41;;;19.07;77.72
28921;BME280;16035;53.594;9.952;2022-08-01T03:42:35;101215.75;;;19.12;77.17
28921;BME280;16035;53.594;9.952;2022-08-01T03:44:38;101211.84;;;19.13;77.35
28921;BME280;16035;53.594;9.952;2022-08-01T03:46:46;101221.53;;;19.10;77.48
28921;BME280;16035;53.594;9.952;2022-08-01T03:48:48;101211.34;;;19.11;77.14
28921;BME280;16035;53.594;9.952;2022-08-01T03:50:51;101215.75;;;19.12;77.35
28921;BME280;16035;53.594;9.952;2022-08-01T03:52:53;101216.03;;;19.10;77.61
28921;BME280;16035;53.594;9.952;2022-08-01T03:54:56;101231.94;;;19.13;76.99
28921;BME280;16035;53.594;9.952;2022-08-01T03:56:58;101225.94;;;19.11;77.53
28921;BME280;16035;53.594;9.952;2022-08-01T03:59:00;101230.00;;;19.14;77.25
28921;BME280;16035;53.594;9.952;2022-08-01T04:01:01;101231.75;;;19.10;76.98
28921;BME280;16035;53.594;9.952;2022-08-01T04:03:02;101232.66;;;19.05;77.14
28921;BME280;16035;53.594;9.952;2022-08-01T04:05:03;101230.72;;;19.06;77.23
28921;BME280;16035;53.594;9.952;2022-08-01T04:07:04;101245.81;;;19.08;77.43
28921;BME280;16035;53.594;9.952;2022-08-01T04:09:07;101243.06;;;19.08;77.36
28921;BME280;16035;53.594;9.952;2022-08-01T04:11:08;101244.50;;;19.06;77.09
28921;BME280;16035;53.594;9.952;2022-08-01T04:13:09;101242.38;;;19.03;77.29
28921;BME280;16035;53.594;9.952;2022-08-01T04:15:09;101249.72;;;19.07;77.31
28921;BME280;16035;53.594;9.952;2022-08-01T04:17:10;101246.44;;;19.05;77.48
28921;BME280;16035;53.594;9.952;2022-08-01T04:19:10;101246.97;;;19.07;77.56
28921;BME280;16035;53.594;9.952;2022-08-01T04:21:11;101250.00;;;19.06;77.46
28921;BME280;16035;53.594;9.952;2022-08-01T04:23:14;101254.91;;;19.09;77.72
28921;BME280;16035;53.594;9.952;2022-08-01T04:27:29;101250.41;;;19.13;77.66
28921;BME280;16035;53.594;9.952;2022-08-01T04:29:32;101262.47;;;19.17;77.72
28921;BME280;16035;53.594;9.952;2022-08-01T04:31:33;101260.31;;;19.14;77.18
28921;BME280;16035;53.594;9.952;2022-08-01T04:33:35;101272.25;;;19.09;76.70
28921;BME280;16035;53.594;9.952;2022-08-01T04:35:38;101273.47;;;19.03;77.46
28921;BME280;16035;53.594;9.952;2022-08-01T04:37:42;101269.38;;;19.01;77.05
28921;BME280;16035;53.594;9.952;2022-08-01T04:39:45;101280.72;;;18.99;77.46
28921;BME280;16035;53.594;9.952;2022-08-01T04:41:46;101278.28;;;18.98;77.56
28921;BME280;16035;53.594;9.952;2022-08-01T04:43:47;101283.97;;;19.01;77.50
28921;BME280;16035;53.594;9.952;2022-08-01T04:45:49;101276.84;;;19.00;77.40
28921;BME280;16035;53.594;9.952;2022-08-01T04:47:51;101280.28;;;18.92;77.39
28921;BME280;16035;53.594;9.952;2022-08-01T04:49:53;101285.78;;;18.92;77.56
28921;BME280;16035;53.594;9.952;2022-08-01T04:51:55;101283.94;;;18.87;77.77
28921;BME280;16035;53.594;9.952;2022-08-01T04:54:00;101289.19;;;18.89;77.88
28921;BME280;16035;53.594;9.952;2022-08-01T04:56:01;101296.53;;;18.93;77.90
28921;BME280;16035;53.594;9.952;2022-08-01T04:58:01;101287.13;;;18.94;77.80
28921;BME280;16035;53.594;9.952;2022-08-01T05:00:03;101290.09;;;18.98;77.68
28921;BME280;16035;53.594;9.952;2022-08-01T05:02:04;101296.22;;;18.95;77.69
28921;BME280;16035;53.594;9.952;2022-08-01T05:04:04;101297.13;;;18.90;77.72
28921;BME280;16035;53.594;9.952;2022-08-01T05:06:05;101293.47;;;18.95;77.96
28921;BME280;16035;53.594;9.952;2022-08-01T05:08:05;101306.09;;;18.96;77.89
28921;BME280;16035;53.594;9.952;2022-08-01T05:10:06;101285.19;;;18.95;77.87
28921;BME280;16035;53.594;9.952;2022-08-01T05:12:07;101287.03;;;19.00;77.91
28921;BME280;16035;53.594;9.952;2022-08-01T05:14:08;101294.50;;;18.99;77.84
28921;BME280;16035;53.594;9.952;2022-08-01T05:16:08;101290.09;;;18.98;77.83
28921;BME280;16035;53.594;9.952;2022-08-01T05:18:08;101293.69;;;18.99;77.83
28921;BME280;16035;53.594;9.952;2022-08-01T05:20:10;101301.94;;;18.99;77.77
28921;BME280;16035;53.594;9.952;2022-08-01T05:22:11;101303.34;;;18.96;77.78
28921;BME280;16035;53.594;9.952;2022-08-01T05:24:12;101305.50;;;18.99;77.90
28921;BME280;16035;53.594;9.952;2022-08-01T05:26:13;101299.91;;;19.04;77.75
28921;BME280;16035;53.594;9.952;2022-08-01T05:28:13;101305.63;;;19.08;77.52
28921;BME280;16035;53.594;9.952;2022-08-01T05:30:14;101311.13;;;19.08;77.47
28921;BME280;16035;53.594;9.952;2022-08-01T05:32:15;101315.81;;;19.07;77.52
28921;BME280;16035;53.594;9.952;2022-08-01T05:34:15;101322.16;;;19.08;77.57
28921;BME280;16035;53.594;9.952;2022-08-01T05:36:16;101323.06;;;19.03;77.50
28921;BME280;16035;53.594;9.952;2022-08-01T05:38:16;101317.03;;;19.01;77.89
28921;BME280;16035;53.594;9.952;2022-08-01T05:40:17;101315.28;;;19.05;77.65
28921;BME280;16035;53.594;9.952;2022-08-01T05:42:17;101317.75;;;19.07;77.75
28921;BME280;16035;53.594;9.952;2022-08-01T05:44:17;101316.63;;;19.08;77.77
28921;BME280;16035;53.594;9.952;2022-08-01T05:46:18;101314.91;;;19.12;77.72
28921;BME280;16035;53.594;9.952;2022-08-01T05:48:18;101320.81;;;19.19;77.54
28921;BME280;16035;53.594;9.952;2022-08-01T05:50:18;101317.56;;;19.17;77.11
28921;BME280;16035;53.594;9.952;2022-08-01T05:52:19;101334.31;;;19.21;77.11
28921;BME280;16035;53.594;9.952;2022-08-01T05:54:19;101341.53;;;19.16;76.66
28921;BME280;16035;53.594;9.952;2022-08-01T05:56:20;101343.59;;;19.11;76.74
28921;BME280;16035;53.594;9.952;2022-08-01T05:58:22;101337.88;;;19.07;77.21
28921;BME280;16035;53.594;9.952;2022-08-01T06:00:23;101335.38;;;19.06;76.83
28921;BME280;16035;53.594;9.952;2022-08-01T06:02:23;101338.47;;;19.04;77.13
28921;BME280;16035;53.594;9.952;2022-08-01T06:04:23;101336.19;;;19.06;76.92
28921;BME280;16035;53.594;9.952;2022-08-01T06:06:24;101346.13;;;19.07;77.19
28921;BME280;16035;53.594;9.952;2022-08-01T06:08:24;101344.41;;;19.11;77.32
28921;BME280;16035;53.594;9.952;2022-08-01T06:10:24;101345.94;;;19.17;77.07
28921;BME280;16035;53.594;9.952;2022-08-01T06:12:25;101350.09;;;19.15;76.93
28921;BME280;16035;53.594;9.952;2022-08-01T06:14:25;101351.53;;;19.12;76.75
28921;BME280;16035;53.594;9.952;2022-08-01T06:16:25;101344.91;;;19.13;76.99
28921;BME280;16035;53.594;9.952;2022-08-01T06:18:26;101349.50;;;19.18;76.72
28921;BME280;16035;53.594;9.952;2022-08-01T06:20:26;101348.78;;;19.12;76.57
28921;BME280;16035;53.594;9.952;2022-08-01T06:22:27;101354.06;;;19.09;76.99
28921;BME280;16035;53.594;9.952;2022-08-01T06:24:27;101353.75;;;19.10;77.01
28921;BME280;16035;53.594;9.952;2022-08-01T06:26:27;101355.41;;;19.11;77.00
28921;BME280;16035;53.594;9.952;2022-08-01T06:28:28;101363.38;;;19.13;76.98
28921;BME280;16035;53.594;9.952;2022-08-01T06:30:29;101371.31;;;19.14;76.68
28921;BME280;16035;53.594;9.952;2022-08-01T06:32:29;101368.28;;;19.16;76.75
28921;BME280;16035;53.594;9.952;2022-08-01T06:34:31;101373.88;;;19.11;76.67
28921;BME280;16035;53.594;9.952;2022-08-01T06:36:31;101367.84;;;19.09;76.58
28921;BME280;16035;53.594;9.952;2022-08-01T06:38:31;101367.25;;;19.12;76.75
28921;BME280;16035;53.594;9.952;2022-08-01T06:40:32;101376.53;;;19.02;76.44
28921;BME280;16035;53.594;9.952;2022-08-01T06:42:32;101368.31;;;18.97;76.43
28921;BME280;16035;53.594;9.952;2022-08-01T06:44:35;101377.22;;;18.94;77.02
28921;BME280;16035;53.594;9.952;2022-08-01T06:46:36;101377.81;;;18.91;76.57
28921;BME280;16035;53.594;9.952;2022-08-01T06:48:36;101381.47;;;18.86;76.45
28921;BME280;16035;53.594;9.952;2022-08-01T06:50:39;101379.44;;;18.92;76.66
28921;BME280;16035;53.594;9.952;2022-08-01T06:52:40;101369.44;;;18.96;76.53
28921;BME280;16035;53.594;9.952;2022-08-01T06:54:41;101379.88;;;18.99;76.54
28921;BME280;16035;53.594;9.952;2022-08-01T06:56:42;101385.88;;;19.01;76.29
28921;BME280;16035;53.594;9.952;2022-08-01T06:58:43;101388.84;;;19.05;76.54
28921;BME280;16035;53.594;9.952;2022-08-01T07:00:43;101384.38;;;19.09;76.30
28921;BME280;16035;53.594;9.952;2022-08-01T07:02:44;101391.28;;;19.06;76.21
28921;BME280;16035;53.594;9.952;2022-08-01T07:04:45;101385.19;;;19.09;76.04
28921;BME280;16035;53.594;9.952;2022-08-01T07:06:45;101390.47;;;19.06;75.86
28921;BME280;16035;53.594;9.952;2022-08-01T07:08:46;101392.53;;;19.00;76.12
28921;BME280;16035;53.594;9.952;2022-08-01T07:10:46;101391.09;;;19.03;76.46
28921;BME280;16035;53.594;9.952;2022-08-01T07:12:50;101397.72;;;19.02;75.88
28921;BME280;16035;53.594;9.952;2022-08-01T07:14:53;101394.78;;;18.98;76.27
28921;BME280;16035;53.594;9.952;2022-08-01T07:16:54;101403.53;;;19.00;76.00
28921;BME280;16035;53.594;9.952;2022-08-01T07:18:54;101404.97;;;18.98;75.88
28921;BME280;16035;53.594;9.952;2022-08-01T07:20:54;101406.97;;;18.92;75.88
28921;BME280;16035;53.594;9.952;2022-08-01T07:22:55;101412.47;;;18.92;75.93
28921;BME280;16035;53.594;9.952;2022-08-01T07:24:55;101415.09;;;18.83;75.88
28921;BME280;16035;53.594;9.952;2022-08-01T07:26:55;101417.56;;;18.85;75.99
28921;BME280;16035;53.594;9.952;2022-08-01T07:28:57;101423.09;;;18.85;75.77
28921;BME280;16035;53.594;9.952;2022-08-01T07:30:58;101427.16;;;18.87;76.24
28921;BME280;16035;53.594;9.952;2022-08-01T07:32:58;101412.88;;;18.85;75.82
28921;BME280;16035;53.594;9.952;2022-08-01T07:34:58;101418.16;;;18.82;75.64
28921;BME280;16035;53.594;9.952;2022-08-01T07:36:59;101425.84;;;18.85;75.67
28921;BME280;16035;53.594;9.952;2022-08-01T07:38:59;101435.13;;;18.89;75.94
28921;BME280;16035;53.594;9.952;2022-08-01T07:41:00;101434.81;;;18.90;75.23
28921;BME280;16035;53.594;9.952;2022-08-01T07:43:00;101429.50;;;18.80;75.21
28921;BME280;16035;53.594;9.952;2022-08-01T07:45:00;101433.13;;;18.76;75.28
28921;BME280;16035;53.594;9.952;2022-08-01T07:47:01;101436.09;;;18.79;75.53
28921;BME280;16035;53.594;9.952;2022-08-01T07:49:01;101442.34;;;18.85;75.29
28921;BME280;16035;53.594;9.952;2022-08-01T07:51:01;101442.78;;;18.92;75.72
28921;BME280;16035;53.594;9.952;2022-08-01T07:53:02;101444.34;;;18.98;75.12
28921;BME280;16035;53.594;9.952;2022-08-01T07:55:03;101446.19;;;19.03;75.21
28921;BME280;16035;53.594;9.952;2022-08-01T07:57:04;101448.88;;;19.08;74.84
28921;BME280;16035;53.594;9.952;2022-08-01T07:59:05;101458.66;;;19.14;74.69
28921;BME280;16035;53.594;9.952;2022-08-01T08:01:05;101461.44;;;19.14;74.50
28921;BME280;16035;53.594;9.952;2022-08-01T08:03:05;101463.81;;;19.21;73.73
28921;BME280;16035;53.594;9.952;2022-08-01T08:05:06;101469.09;;;19.17;72.98
28921;BME280;16035;53.594;9.952;2022-08-01T08:07:07;101475.59;;;19.07;72.97
28921;BME280;16035;53.594;9.952;2022-08-01T08:09:07;101476.28;;;18.99;73.35
28921;BME280;16035;53.594;9.952;2022-08-01T08:11:07;101480.66;;;19.00;72.98
28921;BME280;16035;53.594;9.952;2022-08-01T08:13:08;101480.06;;;19.03;73.46
28921;BME280;16035;53.594;9.952;2022-08-01T08:15:09;101478.31;;;19.26;73.88
28921;BME280;16035;53.594;9.952;2022-08-01T08:17:09;101479.09;;;19.59;73.37
28921;BME280;16035;53.594;9.952;2022-08-01T08:19:10;101478.94;;;19.69;71.45
28921;BME280;16035;53.594;9.952;2022-08-01T08:21:11;101474.16;;;20.16;71.80
28921;BME280;16035;53.594;9.952;2022-08-01T08:23:11;101482.50;;;21.11;71.99
28921;BME280;16035;53.594;9.952;2022-08-01T08:25:30;101479.81;;;22.13;70.87
28921;BME280;16035;53.594;9.952;2022-08-01T08:27:30;101475.81;;;22.45;67.45
28921;BME280;16035;53.594;9.952;2022-08-01T08:29:31;101487.09;;;22.66;66.53
28921;BME280;16035;53.594;9.952;2022-08-01T08:31:32;101484.63;;;22.48;64.32
28921;BME280;16035;53.594;9.952;2022-08-01T08:33:32;101481.91;;;21.68;63.70
28921;BME280;16035;53.594;9.952;2022-08-01T08:35:33;101491.44;;;21.31;66.33
28921;BME280;16035;53.594;9.952;2022-08-01T08:37:34;101495.81;;;21.54;66.32
28921;BME280;16035;53.594;9.952;2022-08-01T08:39:35;101483.69;;;22.04;66.09
28921;BME280;16035;53.594;9.952;2022-08-01T08:41:36;101492.47;;;22.80;65.95
28921;BME280;16035;53.594;9.952;2022-08-01T08:43:36;101491.50;;;23.37;64.90
28921;BME280;16035;53.594;9.952;2022-08-01T08:45:37;101490.22;;;23.90;64.17
28921;BME280;16035;53.594;9.952;2022-08-01T08:47:37;101491.19;;;23.94;62.55
28921;BME280;16035;53.594;9.952;2022-08-01T08:49:39;101501.78;;;23.92;62.01
28921;BME280;16035;53.594;9.952;2022-08-01T08:51:50;101492.78;;;24.33;61.93
28921;BME280;16035;53.594;9.952;2022-08-01T08:53:51;101496.03;;;23.97;60.77
28921;BME280;16035;53.594;9.952;2022-08-01T08:55:55;101495.38;;;24.59;62.09
28921;BME280;16035;53.594;9.952;2022-08-01T08:57:57;101493.50;;;25.14;59.78
28921;BME280;16035;53.594;9.952;2022-08-01T08:59:59;101499.06;;;25.47;58.89
28921;BME280;16035;53.594;9.952;2022-08-01T09:02:02;101499.00;;;25.68;58.17
28921;BME280;16035;53.594;9.952;2022-08-01T09:04:04;101505.53;;;25.84;57.14
28921;BME280;16035;53.594;9.952;2022-08-01T09:06:06;101506.56;;;25.80;54.97
28921;BME280;16035;53.594;9.952;2022-08-01T09:08:07;101512.16;;;25.92;54.66
28921;BME280;16035;53.594;9.952;2022-08-01T09:10:07;101509.41;;;25.71;53.49
28921;BME280;16035;53.594;9.952;2022-08-01T09:12:09;101516.69;;;25.96;54.01
28921;BME280;16035;53.594;9.952;2022-08-01T09:14:11;101522.94;;;25.93;51.61
28921;BME280;16035;53.594;9.952;2022-08-01T09:16:15;101534.06;;;25.93;52.34
28921;BME280;16035;53.594;9.952;2022-08-01T09:18:38;101526.53;;;25.82;49.67
28921;BME280;16035;53.594;9.952;2022-08-01T09:20:42;101524.69;;;25.86;51.47
28921;BME280;16035;53.594;9.952;2022-08-01T09:22:43;101530.38;;;26.14;50.97
28921;BME280;16035;53.594;9.952;2022-08-01T09:27:20;101524.69;;;26.59;49.18
28921;BME280;16035;53.594;9.952;2022-08-01T09:29:26;101528.00;;;26.89;48.42
28921;BME280;16035;53.594;9.952;2022-08-01T09:31:27;101524.03;;;26.90;47.35
28921;BME280;16035;53.594;9.952;2022-08-01T09:33:49;101522.59;;;26.96;47.27
28921;BME280;16035;53.594;9.952;2022-08-01T09:35:55;101534.75;;;27.29;47.33
28921;BME280;16035;53.594;9.952;2022-08-01T09:38:18;101529.06;;;27.25;43.73
28921;BME280;16035;53.594;9.952;2022-08-01T09:40:19;101539.00;;;27.38;47.25
28921;BME280;16035;53.594;9.952;2022-08-01T09:42:24;101536.00;;;26.91;44.85
28921;BME280;16035;53.594;9.952;2022-08-01T09:44:44;101547.56;;;27.05;46.24
28921;BME280;16035;53.594;9.952;2022-08-01T09:46:50;101549.59;;;26.92;45.90
28921;BME280;16035;53.594;9.952;2022-08-01T09:48:55;101543.03;;;27.41;47.61
28921;BME280;16035;53.594;9.952;2022-08-01T09:50:58;101545.66;;;27.93;46.36
28921;BME280;16035;53.594;9.952;2022-08-01T09:52:58;101541.06;;;27.85;46.02
28921;BME280;16035;53.594;9.952;2022-08-01T09:55:05;101541.84;;;27.70;45.19
28921;BME280;16035;53.594;9.952;2022-08-01T09:57:13;101539.16;;;27.30;45.05
28921;BME280;16035;53.594;9.952;2022-08-01T09:59:13;101543.66;;;27.34;45.43
28921;BME280;16035;53.594;9.952;2022-08-01T10:01:14;101539.19;;;27.74;45.99
28921;BME280;16035;53.594;9.952;2022-08-01T10:03:23;101542.22;;;28.32;45.01
28921;BME280;16035;53.594;9.952;2022-08-01T10:05:32;101545.09;;;28.51;43.62
28921;BME280;16035;53.594;9.952;2022-08-01T10:08:19;101547.09;;;28.35;43.55
28921;BME280;16035;53.594;9.952;2022-08-01T10:09:55;101537.91;;;28.18;42.83
28921;BME280;16035;53.594;9.952;2022-08-01T10:11:55;101542.09;;;28.60;43.31
28921;BME280;16035;53.594;9.952;2022-08-01T10:13:58;101541.53;;;28.70;42.05
28921;BME280;16035;53.594;9.952;2022-08-01T10:16:01;101552.47;;;28.59;42.62
28921;BME280;16035;53.594;9.952;2022-08-01T10:18:04;101556.63;;;28.34;42.23
28921;BME280;16035;53.594;9.952;2022-08-01T10:20:06;101557.81;;;28.17;43.38
28921;BME280;16035;53.594;9.952;2022-08-01T10:22:09;101562.72;;;28.36;42.19
28921;BME280;16035;53.594;9.952;2022-08-01T10:24:11;101567.56;;;28.55;41.14
28921;BME280;16035;53.594;9.952;2022-08-01T10:26:13;101565.34;;;28.44;41.46
28921;BME280;16035;53.594;9.952;2022-08-01T10:28:15;101564.09;;;28.61;42.28
28921;BME280;16035;53.594;9.952;2022-08-01T10:30:19;101558.38;;;27.91;39.88
28921;BME280;16035;53.594;9.952;2022-08-01T10:32:19;101562.88;;;27.52;41.85
28921;BME280;16035;53.594;9.952;2022-08-01T10:34:20;101562.25;;;28.02;42.80
28921;BME280;16035;53.594;9.952;2022-08-01T10:36:21;101560.59;;;28.64;41.86
28921;BME280;16035;53.594;9.952;2022-08-01T10:38:23;101554.19;;;28.99;41.20
28921;BME280;16035;53.594;9.952;2022-08-01T10:40:23;101564.72;;;29.06;40.54
28921;BME280;16035;53.594;9.952;2022-08-01T10:42:24;101563.66;;;28.94;40.16
28921;BME280;16035;53.594;9.952;2022-08-01T10:44:26;101556.03;;;28.40;40.15
28921;BME280;16035;53.594;9.952;2022-08-01T10:46:27;101564.41;;;27.93;40.65
28921;BME280;16035;53.594;9.952;2022-08-01T10:50:44;101561.88;;;27.16;40.20
28921;BME280;16035;53.594;9.952;2022-08-01T10:55:09;101571.38;;;26.26;41.34
28921;BME280;16035;53.594;9.952;2022-08-01T10:57:10;101570.13;;;25.78;43.11